sensor_id;sensor_type;location;lat;lon;timestamp;P1;durP1;ratioP1;P2;durP2;ratioP2
18194;SDS011;9223;50.988;3.162;2022-09-02T00:02:58;4.80;;;4.30;;
18194;SDS011;9223;50.988;3.162;2022-09-02T00:09:04;4.40;;;4.00;;
18194;SDS011;9223;50.988;3.162;2022-09-02T00:15:08;4.30;;;3.95;;
18194;SDS011;9223;50.988;3.162;2022-09-02T00:21:11;11.00;;;4.25;;
18194;SDS011;9223;50.988;3.162;2022-09-02T00:27:16;8.63;;;4.80;;
18194;SDS011;9223;50.988;3.162;2022-09-02T00:33:20;4.72;;;4.32;;
18194;SDS011;9223;50.988;3.162;2022-09-02T00:39:23;5.00;;;4.47;;
18194;SDS011;9223;50.988;3.162;2022-09-02T00:45:28;5.88;;;4.70;;
18194;SDS011;9223;50.988;3.162;2022-09-02T00:51:33;5.75;;;4.65;;
18194;SDS011;9223;50.988;3.162;2022-09-02T00:57:40;5.65;;;5.03;;
18194;SDS011;9223;50.988;3.162;2022-09-02T01:03:46;8.43;;;4.68;;
18194;SDS011;9223;50.988;3.162;2022-09-02T01:09:50;8.13;;;5.13;;
18194;SDS011;9223;50.988;3.162;2022-09-02T01:15:56;5.47;;;4.88;;
18194;SDS011;9223;50.988;3.162;2022-09-02T01:22:03;5.47;;;4.85;;
18194;SDS011;9223;50.988;3.162;2022-09-02T01:28:09;6.05;;;5.45;;
18194;SDS011;9223;50.988;3.162;2022-09-02T01:34:12;9.75;;;5.18;;
18194;SDS011;9223;50.988;3.162;2022-09-02T01:40:17;6.88;;;5.18;;
18194;SDS011;9223;50.988;3.162;2022-09-02T01:46:21;5.32;;;4.70;;
18194;SDS011;9223;50.988;3.162;2022-09-02T01:52:25;6.78;;;4.93;;
18194;SDS011;9223;50.988;3.162;2022-09-02T01:58:31;7.82;;;5.68;;
18194;SDS011;9223;50.988;3.162;2022-09-02T02:04:35;8.48;;;5.60;;
18194;SDS011;9223;50.988;3.162;2022-09-02T02:10:39;6.25;;;5.65;;
18194;SDS011;9223;50.988;3.162;2022-09-02T02:16:44;7.15;;;5.85;;
18194;SDS011;9223;50.988;3.162;2022-09-02T02:22:47;7.05;;;6.10;;
18194;SDS011;9223;50.988;3.162;2022-09-02T02:28:51;6.97;;;6.25;;
18194;SDS011;9223;50.988;3.162;2022-09-02T02:34:56;6.70;;;5.97;;
18194;SDS011;9223;50.988;3.162;2022-09-02T02:41:00;6.80;;;6.10;;
18194;SDS011;9223;50.988;3.162;2022-09-02T02:47:06;7.25;;;6.28;;
18194;SDS011;9223;50.988;3.162;2022-09-02T02:53:11;8.18;;;6.63;;
18194;SDS011;9223;50.988;3.162;2022-09-02T02:59:15;9.68;;;6.20;;
18194;SDS011;9223;50.988;3.162;2022-09-02T03:05:18;10.23;;;6.95;;
18194;SDS011;9223;50.988;3.162;2022-09-02T03:11:23;7.22;;;6.38;;
18194;SDS011;9223;50.988;3.162;2022-09-02T03:17:28;7.75;;;6.28;;
18194;SDS011;9223;50.988;3.162;2022-09-02T03:23:32;10.38;;;6.45;;
18194;SDS011;9223;50.988;3.162;2022-09-02T03:29:37;7.85;;;6.97;;
18194;SDS011;9223;50.988;3.162;2022-09-02T03:35:42;7.13;;;6.53;;
18194;SDS011;9223;50.988;3.162;2022-09-02T03:41:45;8.52;;;6.88;;
18194;SDS011;9223;50.988;3.162;2022-09-02T03:47:52;8.02;;;7.07;;
18194;SDS011;9223;50.988;3.162;2022-09-02T03:53:55;9.75;;;7.00;;
18194;SDS011;9223;50.988;3.162;2022-09-02T04:00:00;9.43;;;7.55;;
18194;SDS011;9223;50.988;3.162;2022-09-02T04:06:07;13.07;;;7.63;;
18194;SDS011;9223;50.988;3.162;2022-09-02T04:12:11;8.85;;;7.78;;
18194;SDS011;9223;50.988;3.162;2022-09-02T04:18:15;9.70;;;8.13;;
18194;SDS011;9223;50.988;3.162;2022-09-02T04:24:20;8.77;;;7.88;;
18194;SDS011;9223;50.988;3.162;2022-09-02T04:30:23;10.43;;;7.95;;
18194;SDS011;9223;50.988;3.162;2022-09-02T04:36:27;8.20;;;7.50;;
18194;SDS011;9223;50.988;3.162;2022-09-02T04:42:33;10.00;;;8.10;;
18194;SDS011;9223;50.988;3.162;2022-09-02T04:48:37;11.30;;;8.25;;
18194;SDS011;9223;50.988;3.162;2022-09-02T04:54:41;14.65;;;9.23;;
18194;SDS011;9223;50.988;3.162;2022-09-02T05:00:46;9.48;;;8.45;;
18194;SDS011;9223;50.988;3.162;2022-09-02T05:06:50;9.82;;;8.13;;
18194;SDS011;9223;50.988;3.162;2022-09-02T05:12:53;11.57;;;8.45;;
18194;SDS011;9223;50.988;3.162;2022-09-02T05:18:58;11.85;;;8.93;;
18194;SDS011;9223;50.988;3.162;2022-09-02T05:25:02;12.35;;;8.90;;
18194;SDS011;9223;50.988;3.162;2022-09-02T05:31:07;16.83;;;10.20;;
18194;SDS011;9223;50.988;3.162;2022-09-02T05:37:14;12.00;;;9.07;;
18194;SDS011;9223;50.988;3.162;2022-09-02T05:43:18;15.70;;;9.60;;
18194;SDS011;9223;50.988;3.162;2022-09-02T05:49:21;19.52;;;10.73;;
18194;SDS011;9223;50.988;3.162;2022-09-02T05:55:28;20.90;;;10.52;;
18194;SDS011;9223;50.988;3.162;2022-09-02T06:01:32;12.13;;;9.52;;
18194;SDS011;9223;50.988;3.162;2022-09-02T06:07:35;23.15;;;9.73;;
18194;SDS011;9223;50.988;3.162;2022-09-02T06:13:40;11.38;;;9.07;;
18194;SDS011;9223;50.988;3.162;2022-09-02T06:19:44;10.07;;;9.07;;
18194;SDS011;9223;50.988;3.162;2022-09-02T06:25:48;12.93;;;8.88;;
18194;SDS011;9223;50.988;3.162;2022-09-02T06:31:53;10.57;;;8.57;;
18194;SDS011;9223;50.988;3.162;2022-09-02T06:37:56;12.75;;;8.80;;
18194;SDS011;9223;50.988;3.162;2022-09-02T06:44:01;16.60;;;9.25;;
18194;SDS011;9223;50.988;3.162;2022-09-02T06:50:08;18.95;;;10.75;;
18194;SDS011;9223;50.988;3.162;2022-09-02T06:56:12;15.05;;;9.90;;
18194;SDS011;9223;50.988;3.162;2022-09-02T07:02:15;17.98;;;10.02;;
18194;SDS011;9223;50.988;3.162;2022-09-02T07:08:20;13.00;;;9.55;;
18194;SDS011;9223;50.988;3.162;2022-09-02T07:14:24;9.48;;;8.60;;
18194;SDS011;9223;50.988;3.162;2022-09-02T07:20:29;9.77;;;8.70;;
18194;SDS011;9223;50.988;3.162;2022-09-02T07:26:34;9.88;;;8.35;;
18194;SDS011;9223;50.988;3.162;2022-09-02T07:32:38;9.23;;;8.27;;
18194;SDS011;9223;50.988;3.162;2022-09-02T07:38:41;9.10;;;8.23;;
18194;SDS011;9223;50.988;3.162;2022-09-02T07:44:46;9.32;;;8.35;;
18194;SDS011;9223;50.988;3.162;2022-09-02T07:50:50;11.30;;;8.20;;
18194;SDS011;9223;50.988;3.162;2022-09-02T07:56:53;13.32;;;8.27;;
18194;SDS011;9223;50.988;3.162;2022-09-02T08:02:59;8.85;;;7.85;;
18194;SDS011;9223;50.988;3.162;2022-09-02T08:09:02;11.95;;;8.52;;
18194;SDS011;9223;50.988;3.162;2022-09-02T08:15:07;9.38;;;8.45;;
18194;SDS011;9223;50.988;3.162;2022-09-02T08:21:12;19.08;;;9.10;;
18194;SDS011;9223;50.988;3.162;2022-09-02T08:27:16;9.98;;;9.07;;
18194;SDS011;9223;50.988;3.162;2022-09-02T08:33:19;9.20;;;8.05;;
18194;SDS011;9223;50.988;3.162;2022-09-02T08:39:25;9.65;;;8.75;;
18194;SDS011;9223;50.988;3.162;2022-09-02T08:45:29;5.90;;;5.30;;
18194;SDS011;9223;50.988;3.162;2022-09-02T08:51:35;8.00;;;6.78;;
18194;SDS011;9223;50.988;3.162;2022-09-02T08:57:41;10.20;;;8.27;;
18194;SDS011;9223;50.988;3.162;2022-09-02T09:03:52;8.95;;;7.53;;
18194;SDS011;9223;50.988;3.162;2022-09-02T09:16:26;9.85;;;7.90;;
18194;SDS011;9223;50.988;3.162;2022-09-02T09:22:34;9.85;;;7.15;;
18194;SDS011;9223;50.988;3.162;2022-09-02T09:28:39;10.43;;;7.53;;
18194;SDS011;9223;50.988;3.162;2022-09-02T09:41:14;7.47;;;6.72;;
18194;SDS011;9223;50.988;3.162;2022-09-02T09:47:20;7.50;;;6.30;;
18194;SDS011;9223;50.988;3.162;2022-09-02T09:53:26;7.63;;;6.82;;
18194;SDS011;9223;50.988;3.162;2022-09-02T09:59:35;6.85;;;6.25;;
18194;SDS011;9223;50.988;3.162;2022-09-02T10:05:39;8.00;;;6.95;;
18194;SDS011;9223;50.988;3.162;2022-09-02T10:11:53;7.95;;;6.38;;
18194;SDS011;9223;50.988;3.162;2022-09-02T10:17:59;8.07;;;7.28;;
18194;SDS011;9223;50.988;3.162;2022-09-02T10:24:08;8.43;;;7.50;;
18194;SDS011;9223;50.988;3.162;2022-09-02T10:30:16;6.53;;;5.93;;
18194;SDS011;9223;50.988;3.162;2022-09-02T10:36:23;8.07;;;6.32;;
18194;SDS011;9223;50.988;3.162;2022-09-02T10:42:31;7.72;;;5.90;;
18194;SDS011;9223;50.988;3.162;2022-09-02T10:48:40;8.43;;;5.80;;
18194;SDS011;9223;50.988;3.162;2022-09-02T10:54:50;5.35;;;4.82;;
18194;SDS011;9223;50.988;3.162;2022-09-02T11:00:57;6.22;;;5.70;;
18194;SDS011;9223;50.988;3.162;2022-09-02T11:07:01;6.85;;;6.15;;
18194;SDS011;9223;50.988;3.162;2022-09-02T11:13:08;6.15;;;5.05;;
18194;SDS011;9223;50.988;3.162;2022-09-02T11:19:16;5.28;;;4.78;;
18194;SDS011;9223;50.988;3.162;2022-09-02T11:25:21;5.40;;;4.60;;
18194;SDS011;9223;50.988;3.162;2022-09-02T11:31:29;4.93;;;4.43;;
18194;SDS011;9223;50.988;3.162;2022-09-02T11:37:41;5.50;;;4.90;;
18194;SDS011;9223;50.988;3.162;2022-09-02T11:43:46;5.43;;;4.60;;
18194;SDS011;9223;50.988;3.162;2022-09-02T11:56:15;5.18;;;4.72;;
18194;SDS011;9223;50.988;3.162;2022-09-02T12:02:30;4.47;;;4.07;;
18194;SDS011;9223;50.988;3.162;2022-09-02T12:08:57;5.03;;;4.63;;
18194;SDS011;9223;50.988;3.162;2022-09-02T12:15:12;4.07;;;3.67;;
18194;SDS011;9223;50.988;3.162;2022-09-02T12:21:17;4.63;;;4.07;;
18194;SDS011;9223;50.988;3.162;2022-09-02T12:27:25;4.07;;;3.75;;
18194;SDS011;9223;50.988;3.162;2022-09-02T12:33:31;4.80;;;4.38;;
18194;SDS011;9223;50.988;3.162;2022-09-02T12:46:05;4.10;;;3.75;;
18194;SDS011;9223;50.988;3.162;2022-09-02T12:58:35;5.28;;;4.78;;
18194;SDS011;9223;50.988;3.162;2022-09-02T13:04:43;5.15;;;4.35;;
18194;SDS011;9223;50.988;3.162;2022-09-02T13:11:04;5.78;;;4.57;;
18194;SDS011;9223;50.988;3.162;2022-09-02T13:17:22;4.40;;;4.00;;
18194;SDS011;9223;50.988;3.162;2022-09-02T13:30:06;4.65;;;4.25;;
18194;SDS011;9223;50.988;3.162;2022-09-02T13:36:12;4.32;;;3.92;;
18194;SDS011;9223;50.988;3.162;2022-09-02T13:42:22;4.22;;;3.80;;
18194;SDS011;9223;50.988;3.162;2022-09-02T13:48:26;4.68;;;4.22;;
18194;SDS011;9223;50.988;3.162;2022-09-02T13:54:32;4.43;;;4.10;;
18194;SDS011;9223;50.988;3.162;2022-09-02T14:00:36;4.70;;;4.30;;
18194;SDS011;9223;50.988;3.162;2022-09-02T14:06:41;4.32;;;3.92;;
18194;SDS011;9223;50.988;3.162;2022-09-02T14:12:47;4.53;;;4.20;;
18194;SDS011;9223;50.988;3.162;2022-09-02T14:19:06;3.78;;;3.47;;
18194;SDS011;9223;50.988;3.162;2022-09-02T14:25:11;4.50;;;4.10;;
18194;SDS011;9223;50.988;3.162;2022-09-02T14:31:23;4.50;;;4.10;;
18194;SDS011;9223;50.988;3.162;2022-09-02T14:37:30;4.00;;;3.70;;
18194;SDS011;9223;50.988;3.162;2022-09-02T14:43:38;3.90;;;3.28;;
18194;SDS011;9223;50.988;3.162;2022-09-02T14:49:45;9.00;;;3.90;;
18194;SDS011;9223;50.988;3.162;2022-09-02T14:55:50;13.23;;;4.30;;
18194;SDS011;9223;50.988;3.162;2022-09-02T15:01:54;7.93;;;3.25;;
18194;SDS011;9223;50.988;3.162;2022-09-02T15:08:00;5.72;;;3.42;;
18194;SDS011;9223;50.988;3.162;2022-09-02T15:14:04;4.30;;;3.35;;
18194;SDS011;9223;50.988;3.162;2022-09-02T15:20:07;3.08;;;2.78;;
18194;SDS011;9223;50.988;3.162;2022-09-02T15:26:12;3.67;;;2.83;;
18194;SDS011;9223;50.988;3.162;2022-09-02T15:32:16;4.28;;;3.13;;
18194;SDS011;9223;50.988;3.162;2022-09-02T15:38:19;6.35;;;2.80;;
18194;SDS011;9223;50.988;3.162;2022-09-02T15:44:24;3.30;;;2.90;;
18194;SDS011;9223;50.988;3.162;2022-09-02T15:50:30;3.78;;;3.35;;
18194;SDS011;9223;50.988;3.162;2022-09-02T15:56:35;3.65;;;3.25;;
18194;SDS011;9223;50.988;3.162;2022-09-02T16:02:40;5.65;;;4.88;;
18194;SDS011;9223;50.988;3.162;2022-09-02T16:08:44;7.03;;;4.30;;
18194;SDS011;9223;50.988;3.162;2022-09-02T16:14:47;3.97;;;3.67;;
18194;SDS011;9223;50.988;3.162;2022-09-02T16:20:52;4.25;;;3.85;;
18194;SDS011;9223;50.988;3.162;2022-09-02T16:26:56;4.13;;;3.78;;
18194;SDS011;9223;50.988;3.162;2022-09-02T16:32:59;4.20;;;3.78;;
18194;SDS011;9223;50.988;3.162;2022-09-02T16:39:06;3.95;;;3.65;;
18194;SDS011;9223;50.988;3.162;2022-09-02T16:45:10;4.68;;;4.00;;
18194;SDS011;9223;50.988;3.162;2022-09-02T16:51:14;4.43;;;4.05;;
18194;SDS011;9223;50.988;3.162;2022-09-02T16:57:19;3.95;;;3.65;;
18194;SDS011;9223;50.988;3.162;2022-09-02T17:03:22;7.95;;;5.28;;
18194;SDS011;9223;50.988;3.162;2022-09-02T17:09:26;8.90;;;5.30;;
18194;SDS011;9223;50.988;3.162;2022-09-02T17:15:30;4.50;;;3.85;;
18194;SDS011;9223;50.988;3.162;2022-09-02T17:21:34;3.00;;;2.70;;
18194;SDS011;9223;50.988;3.162;2022-09-02T17:27:39;4.38;;;3.90;;
18194;SDS011;9223;50.988;3.162;2022-09-02T17:33:45;4.75;;;4.22;;
18194;SDS011;9223;50.988;3.162;2022-09-02T17:39:49;5.95;;;4.50;;
18194;SDS011;9223;50.988;3.162;2022-09-02T17:45:58;5.75;;;4.13;;
18194;SDS011;9223;50.988;3.162;2022-09-02T17:52:07;5.10;;;4.55;;
18194;SDS011;9223;50.988;3.162;2022-09-02T17:58:12;5.18;;;4.68;;
18194;SDS011;9223;50.988;3.162;2022-09-02T18:04:20;5.95;;;5.35;;
18194;SDS011;9223;50.988;3.162;2022-09-02T18:10:30;5.53;;;5.00;;
18194;SDS011;9223;50.988;3.162;2022-09-02T18:16:36;3.60;;;3.17;;
18194;SDS011;9223;50.988;3.162;2022-09-02T18:22:45;4.72;;;4.32;;
18194;SDS011;9223;50.988;3.162;2022-09-02T18:28:54;5.43;;;4.93;;
18194;SDS011;9223;50.988;3.162;2022-09-02T18:35:04;5.90;;;4.82;;
18194;SDS011;9223;50.988;3.162;2022-09-02T18:41:15;5.32;;;3.95;;
18194;SDS011;9223;50.988;3.162;2022-09-02T18:47:25;4.38;;;3.97;;
18194;SDS011;9223;50.988;3.162;2022-09-02T18:53:34;4.93;;;3.70;;
18194;SDS011;9223;50.988;3.162;2022-09-02T18:59:41;4.70;;;4.30;;
18194;SDS011;9223;50.988;3.162;2022-09-02T19:05:46;5.07;;;4.15;;
18194;SDS011;9223;50.988;3.162;2022-09-02T19:11:50;7.47;;;4.05;;
18194;SDS011;9223;50.988;3.162;2022-09-02T19:17:53;7.35;;;4.03;;
18194;SDS011;9223;50.988;3.162;2022-09-02T19:23:58;3.20;;;2.65;;
18194;SDS011;9223;50.988;3.162;2022-09-02T19:30:03;4.07;;;2.85;;
18194;SDS011;9223;50.988;3.162;2022-09-02T19:36:07;2.80;;;2.60;;
18194;SDS011;9223;50.988;3.162;2022-09-02T19:42:12;4.00;;;3.00;;
18194;SDS011;9223;50.988;3.162;2022-09-02T19:48:18;3.17;;;2.63;;
18194;SDS011;9223;50.988;3.162;2022-09-02T19:54:21;3.38;;;3.05;;
18194;SDS011;9223;50.988;3.162;2022-09-02T20:00:26;2.78;;;2.58;;
18194;SDS011;9223;50.988;3.162;2022-09-02T20:06:30;3.40;;;3.08;;
18194;SDS011;9223;50.988;3.162;2022-09-02T20:12:33;3.72;;;3.30;;
18194;SDS011;9223;50.988;3.162;2022-09-02T20:18:38;3.47;;;3.17;;
18194;SDS011;9223;50.988;3.162;2022-09-02T20:24:44;3.60;;;3.30;;
18194;SDS011;9223;50.988;3.162;2022-09-02T20:30:49;3.90;;;3.60;;
18194;SDS011;9223;50.988;3.162;2022-09-02T20:36:55;4.28;;;3.95;;
18194;SDS011;9223;50.988;3.162;2022-09-02T20:43:07;3.38;;;3.15;;
18194;SDS011;9223;50.988;3.162;2022-09-02T20:49:19;4.25;;;3.75;;
18194;SDS011;9223;50.988;3.162;2022-09-02T20:55:26;4.18;;;3.88;;
18194;SDS011;9223;50.988;3.162;2022-09-02T21:01:32;4.95;;;4.10;;
18194;SDS011;9223;50.988;3.162;2022-09-02T21:07:38;4.45;;;4.05;;
18194;SDS011;9223;50.988;3.162;2022-09-02T21:13:48;5.13;;;4.72;;
18194;SDS011;9223;50.988;3.162;2022-09-02T21:20:06;4.78;;;4.35;;
18194;SDS011;9223;50.988;3.162;2022-09-02T21:26:12;5.45;;;4.95;;
18194;SDS011;9223;50.988;3.162;2022-09-02T21:32:22;6.50;;;5.32;;
18194;SDS011;9223;50.988;3.162;2022-09-02T21:38:29;5.70;;;5.20;;
18194;SDS011;9223;50.988;3.162;2022-09-02T21:44:38;6.53;;;5.93;;
18194;SDS011;9223;50.988;3.162;2022-09-02T21:50:46;8.57;;;6.45;;
18194;SDS011;9223;50.988;3.162;2022-09-02T21:56:54;6.85;;;6.18;;
18194;SDS011;9223;50.988;3.162;2022-09-02T22:03:05;7.75;;;6.95;;
18194;SDS011;9223;50.988;3.162;2022-09-02T22:09:19;7.55;;;6.85;;
18194;SDS011;9223;50.988;3.162;2022-09-02T22:15:28;7.07;;;6.38;;
18194;SDS011;9223;50.988;3.162;2022-09-02T22:21:35;7.18;;;6.57;;
18194;SDS011;9223;50.988;3.162;2022-09-02T22:27:50;7.13;;;6.43;;
18194;SDS011;9223;50.988;3.162;2022-09-02T22:33:57;8.05;;;7.25;;
18194;SDS011;9223;50.988;3.162;2022-09-02T22:40:03;8.18;;;7.47;;
18194;SDS011;9223;50.988;3.162;2022-09-02T22:46:10;8.93;;;7.85;;
18194;SDS011;9223;50.988;3.162;2022-09-02T22:52:35;8.75;;;7.95;;
18194;SDS011;9223;50.988;3.162;2022-09-02T22:59:00;9.20;;;8.30;;
18194;SDS011;9223;50.988;3.162;2022-09-02T23:05:11;9.07;;;8.18;;
18194;SDS011;9223;50.988;3.162;2022-09-02T23:11:39;9.43;;;8.57;;
18194;SDS011;9223;50.988;3.162;2022-09-02T23:17:46;10.27;;;9.25;;
18194;SDS011;9223;50.988;3.162;2022-09-02T23:24:02;11.77;;;10.45;;
18194;SDS011;9223;50.988;3.162;2022-09-02T23:30:10;14.05;;;12.48;;
18194;SDS011;9223;50.988;3.162;2022-09-02T23:36:15;12.77;;;11.48;;
18194;SDS011;9223;50.988;3.162;2022-09-02T23:42:23;11.90;;;10.13;;
18194;SDS011;9223;50.988;3.162;2022-09-02T23:48:30;13.30;;;11.23;;
18194;SDS011;9223;50.988;3.162;2022-09-02T23:54:45;12.25;;;10.07;;
